sensor_id;sensor_type;location;lat;lon;timestamp;pressure;altitude;pressure_sealevel;temperature;humidity
69351;BME280;57106;51.446;-2.606;2023-04-28T00:03:02;100678.82;;;14.22;81.45
69351;BME280;57106;51.446;-2.606;2023-04-28T00:05:28;100673.64;;;14.02;82.08
69351;BME280;57106;51.446;-2.606;2023-04-28T00:07:53;100674.22;;;14.04;82.81
69351;BME280;57106;51.446;-2.606;2023-04-28T00:12:46;100678.75;;;14.43;81.39
69351;BME280;57106;51.446;-2.606;2023-04-28T00:15:10;100679.84;;;14.44;81.24
69351;BME280;57106;51.446;-2.606;2023-04-28T00:17:35;100680.30;;;14.46;81.10
69351;BME280;57106;51.446;-2.606;2023-04-28T00:20:00;100680.07;;;14.49;80.94
69351;BME280;57106;51.446;-2.606;2023-04-28T00:22:26;100679.51;;;14.50;80.82
69351;BME280;57106;51.446;-2.606;2023-04-28T00:24:51;100682.07;;;14.47;80.94
69351;BME280;57106;51.446;-2.606;2023-04-28T00:27:16;100677.68;;;14.50;80.89
69351;BME280;57106;51.446;-2.606;2023-04-28T00:29:41;100676.65;;;14.52;80.79
69351;BME280;57106;51.446;-2.606;2023-04-28T00:32:06;100675.87;;;14.44;81.16
69351;BME280;57106;51.446;-2.606;2023-04-28T00:34:32;100675.10;;;14.48;81.02
69351;BME280;57106;51.446;-2.606;2023-04-28T00:36:57;100673.78;;;14.43;81.17
69351;BME280;57106;51.446;-2.606;2023-04-28T00:39:22;100674.17;;;14.48;81.17
69351;BME280;57106;51.446;-2.606;2023-04-28T00:41:48;100674.45;;;14.49;81.20
69351;BME280;57106;51.446;-2.606;2023-04-28T00:44:13;100672.93;;;14.46;81.48
69351;BME280;57106;51.446;-2.606;2023-04-28T00:46:39;100674.55;;;14.49;81.48
69351;BME280;57106;51.446;-2.606;2023-04-28T00:49:04;100673.07;;;14.49;81.57
69351;BME280;57106;51.446;-2.606;2023-04-28T00:51:29;100674.12;;;14.53;81.55
69351;BME280;57106;51.446;-2.606;2023-04-28T00:54:00;100672.71;;;14.51;81.52
69351;BME280;57106;51.446;-2.606;2023-04-28T00:56:20;100672.54;;;14.54;81.31
69351;BME280;57106;51.446;-2.606;2023-04-28T00:58:46;100674.06;;;14.53;81.45
69351;BME280;57106;51.446;-2.606;2023-04-28T01:01:11;100675.59;;;14.53;81.54
69351;BME280;57106;51.446;-2.606;2023-04-28T01:03:38;100675.92;;;14.59;81.34
69351;BME280;57106;51.446;-2.606;2023-04-28T01:06:03;100677.01;;;14.59;81.32
69351;BME280;57106;51.446;-2.606;2023-04-28T01:08:29;100677.82;;;14.59;81.19
69351;BME280;57106;51.446;-2.606;2023-04-28T01:10:53;100676.41;;;14.60;81.16
69351;BME280;57106;51.446;-2.606;2023-04-28T01:13:18;100680.73;;;14.61;81.01
69351;BME280;57106;51.446;-2.606;2023-04-28T01:15:43;100680.97;;;14.62;81.06
69351;BME280;57106;51.446;-2.606;2023-04-28T01:18:08;100683.65;;;14.63;81.06
69351;BME280;57106;51.446;-2.606;2023-04-28T01:20:34;100687.01;;;14.61;81.01
69351;BME280;57106;51.446;-2.606;2023-04-28T01:22:59;100686.06;;;14.63;80.79
69351;BME280;57106;51.446;-2.606;2023-04-28T01:25:25;100686.02;;;14.61;80.83
69351;BME280;57106;51.446;-2.606;2023-04-28T01:27:50;100688.99;;;14.58;81.08
69351;BME280;57106;51.446;-2.606;2023-04-28T01:30:16;100690.10;;;14.50;81.43
69351;BME280;57106;51.446;-2.606;2023-04-28T01:32:41;100689.77;;;14.41;81.48
69351;BME280;57106;51.446;-2.606;2023-04-28T01:35:07;100693.34;;;14.19;82.59
69351;BME280;57106;51.446;-2.606;2023-04-28T01:37:32;100692.11;;;14.15;82.45
69351;BME280;57106;51.446;-2.606;2023-04-28T01:39:58;100696.19;;;13.98;83.03
69351;BME280;57106;51.446;-2.606;2023-04-28T01:42:23;100693.01;;;13.97;83.53
69351;BME280;57106;51.446;-2.606;2023-04-28T01:44:48;100693.49;;;13.78;83.97
69351;BME280;57106;51.446;-2.606;2023-04-28T01:47:14;100696.93;;;13.79;84.29
69351;BME280;57106;51.446;-2.606;2023-04-28T01:49:40;100695.15;;;13.77;84.19
69351;BME280;57106;51.446;-2.606;2023-04-28T01:52:05;100696.24;;;13.67;84.91
69351;BME280;57106;51.446;-2.606;2023-04-28T01:54:31;100698.35;;;13.57;84.80
69351;BME280;57106;51.446;-2.606;2023-04-28T01:56:56;100696.31;;;13.57;85.43
69351;BME280;57106;51.446;-2.606;2023-04-28T01:59:21;100693.96;;;13.56;85.96
69351;BME280;57106;51.446;-2.606;2023-04-28T02:01:47;100695.34;;;13.75;84.98
69351;BME280;57106;51.446;-2.606;2023-04-28T02:04:13;100698.05;;;13.82;84.89
69351;BME280;57106;51.446;-2.606;2023-04-28T02:06:38;100704.79;;;13.78;84.56
69351;BME280;57106;51.446;-2.606;2023-04-28T02:09:03;100707.35;;;13.83;84.36
69351;BME280;57106;51.446;-2.606;2023-04-28T02:11:29;100710.93;;;13.88;84.25
69351;BME280;57106;51.446;-2.606;2023-04-28T02:13:55;100709.48;;;13.94;83.91
69351;BME280;57106;51.446;-2.606;2023-04-28T02:16:20;100712.53;;;13.65;84.86
69351;BME280;57106;51.446;-2.606;2023-04-28T02:18:45;100714.55;;;13.70;84.72
69351;BME280;57106;51.446;-2.606;2023-04-28T02:21:11;100715.98;;;13.62;85.41
69351;BME280;57106;51.446;-2.606;2023-04-28T02:23:37;100717.58;;;13.62;85.33
69351;BME280;57106;51.446;-2.606;2023-04-28T02:26:02;100718.23;;;13.67;85.07
69351;BME280;57106;51.446;-2.606;2023-04-28T02:28:27;100719.79;;;13.60;85.11
69351;BME280;57106;51.446;-2.606;2023-04-28T02:33:18;100714.95;;;13.82;84.30
69351;BME280;57106;51.446;-2.606;2023-04-28T02:35:44;100715.94;;;13.80;84.32
69351;BME280;57106;51.446;-2.606;2023-04-28T02:38:09;100717.22;;;13.88;83.54
69351;BME280;57106;51.446;-2.606;2023-04-28T02:40:35;100718.92;;;13.84;83.92
69351;BME280;57106;51.446;-2.606;2023-04-28T02:43:00;100719.87;;;13.85;84.22
69351;BME280;57106;51.446;-2.606;2023-04-28T02:45:26;100723.37;;;13.94;83.42
69351;BME280;57106;51.446;-2.606;2023-04-28T02:47:51;100722.48;;;14.13;83.13
69351;BME280;57106;51.446;-2.606;2023-04-28T02:50:17;100721.84;;;14.15;82.91
69351;BME280;57106;51.446;-2.606;2023-04-28T02:52:42;100726.17;;;14.02;83.07
69351;BME280;57106;51.446;-2.606;2023-04-28T02:55:08;100725.15;;;14.01;82.93
69351;BME280;57106;51.446;-2.606;2023-04-28T02:57:33;100729.64;;;14.08;82.79
69351;BME280;57106;51.446;-2.606;2023-04-28T02:59:58;100727.87;;;13.91;83.19
69351;BME280;57106;51.446;-2.606;2023-04-28T03:02:24;100732.72;;;13.80;83.56
69351;BME280;57106;51.446;-2.606;2023-04-28T03:04:49;100734.80;;;13.80;83.24
69351;BME280;57106;51.446;-2.606;2023-04-28T03:07:15;100738.82;;;13.48;84.28
69351;BME280;57106;51.446;-2.606;2023-04-28T03:09:40;100741.65;;;13.37;84.86
69351;BME280;57106;51.446;-2.606;2023-04-28T03:12:06;100736.74;;;13.36;84.86
69351;BME280;57106;51.446;-2.606;2023-04-28T03:14:31;100741.99;;;13.30;84.84
69351;BME280;57106;51.446;-2.606;2023-04-28T03:16:57;100743.43;;;13.31;85.40
69351;BME280;57106;51.446;-2.606;2023-04-28T03:19:22;100745.61;;;13.44;84.49
69351;BME280;57106;51.446;-2.606;2023-04-28T03:21:51;100745.40;;;13.49;84.27
69351;BME280;57106;51.446;-2.606;2023-04-28T03:24:14;100744.20;;;13.37;84.52
69351;BME280;57106;51.446;-2.606;2023-04-28T03:26:38;100743.82;;;13.41;84.60
69351;BME280;57106;51.446;-2.606;2023-04-28T03:29:04;100746.32;;;13.56;83.87
69351;BME280;57106;51.446;-2.606;2023-04-28T03:31:30;100746.71;;;13.34;84.42
69351;BME280;57106;51.446;-2.606;2023-04-28T03:33:55;100747.13;;;13.29;84.84
69351;BME280;57106;51.446;-2.606;2023-04-28T03:36:21;100750.00;;;13.41;84.46
69351;BME280;57106;51.446;-2.606;2023-04-28T03:38:46;100753.20;;;13.13;85.52
69351;BME280;57106;51.446;-2.606;2023-04-28T03:41:11;100751.35;;;13.01;86.37
69351;BME280;57106;51.446;-2.606;2023-04-28T03:43:37;100755.08;;;13.03;86.33
69351;BME280;57106;51.446;-2.606;2023-04-28T03:46:03;100756.73;;;13.10;86.06
69351;BME280;57106;51.446;-2.606;2023-04-28T03:48:28;100759.18;;;13.14;86.16
69351;BME280;57106;51.446;-2.606;2023-04-28T03:50:53;100761.53;;;13.13;86.16
69351;BME280;57106;51.446;-2.606;2023-04-28T03:53:19;100762.33;;;13.04;86.29
69351;BME280;57106;51.446;-2.606;2023-04-28T03:58:10;100758.44;;;12.92;86.76
69351;BME280;57106;51.446;-2.606;2023-04-28T04:00:35;100762.74;;;12.72;87.99
69351;BME280;57106;51.446;-2.606;2023-04-28T04:03:00;100761.70;;;12.77;88.10
69351;BME280;57106;51.446;-2.606;2023-04-28T04:05:26;100761.51;;;12.81;87.64
69351;BME280;57106;51.446;-2.606;2023-04-28T04:07:51;100760.72;;;12.98;87.03
69351;BME280;57106;51.446;-2.606;2023-04-28T04:10:17;100760.64;;;12.89;87.32
69351;BME280;57106;51.446;-2.606;2023-04-28T04:12:43;100763.68;;;12.67;88.12
69351;BME280;57106;51.446;-2.606;2023-04-28T04:15:09;100765.38;;;12.79;88.23
69351;BME280;57106;51.446;-2.606;2023-04-28T04:17:34;100766.43;;;12.84;87.72
69351;BME280;57106;51.446;-2.606;2023-04-28T04:19:59;100770.48;;;12.77;87.71
69351;BME280;57106;51.446;-2.606;2023-04-28T04:22:25;100768.89;;;12.59;88.30
69351;BME280;57106;51.446;-2.606;2023-04-28T04:24:50;100768.66;;;12.57;88.49
69351;BME280;57106;51.446;-2.606;2023-04-28T04:27:16;100769.65;;;12.55;88.74
69351;BME280;57106;51.446;-2.606;2023-04-28T04:29:41;100772.37;;;12.66;88.63
69351;BME280;57106;51.446;-2.606;2023-04-28T04:32:07;100777.58;;;12.52;89.20
69351;BME280;57106;51.446;-2.606;2023-04-28T04:34:32;100774.88;;;12.53;88.99
69351;BME280;57106;51.446;-2.606;2023-04-28T04:36:58;100773.57;;;12.41;89.45
69351;BME280;57106;51.446;-2.606;2023-04-28T04:39:23;100771.53;;;12.48;89.50
69351;BME280;57106;51.446;-2.606;2023-04-28T04:41:49;100776.28;;;12.60;89.20
69351;BME280;57106;51.446;-2.606;2023-04-28T04:44:14;100769.70;;;12.56;88.42
69351;BME280;57106;51.446;-2.606;2023-04-28T04:46:40;100773.21;;;12.49;88.75
69351;BME280;57106;51.446;-2.606;2023-04-28T04:49:05;100771.28;;;12.44;89.12
69351;BME280;57106;51.446;-2.606;2023-04-28T04:51:30;100775.15;;;12.48;89.26
69351;BME280;57106;51.446;-2.606;2023-04-28T04:54:02;100776.60;;;12.65;88.19
69351;BME280;57106;51.446;-2.606;2023-04-28T04:56:22;100780.99;;;12.55;88.23
69351;BME280;57106;51.446;-2.606;2023-04-28T04:58:47;100782.19;;;12.41;88.78
69351;BME280;57106;51.446;-2.606;2023-04-28T05:01:15;100779.63;;;12.35;88.65
69351;BME280;57106;51.446;-2.606;2023-04-28T05:03:38;100784.75;;;12.21;89.87
69351;BME280;57106;51.446;-2.606;2023-04-28T05:06:04;100787.95;;;12.30;89.53
69351;BME280;57106;51.446;-2.606;2023-04-28T05:08:29;100794.21;;;12.47;88.93
69351;BME280;57106;51.446;-2.606;2023-04-28T05:10:55;100799.66;;;12.41;88.20
69351;BME280;57106;51.446;-2.606;2023-04-28T05:13:20;100806.28;;;12.50;88.06
69351;BME280;57106;51.446;-2.606;2023-04-28T05:18:11;100813.76;;;12.49;87.12
69351;BME280;57106;51.446;-2.606;2023-04-28T05:20:37;100816.93;;;12.51;87.12
69351;BME280;57106;51.446;-2.606;2023-04-28T05:23:02;100821.68;;;12.46;87.56
69351;BME280;57106;51.446;-2.606;2023-04-28T05:25:28;100824.86;;;12.74;86.55
69351;BME280;57106;51.446;-2.606;2023-04-28T05:27:53;100831.52;;;12.64;86.34
69351;BME280;57106;51.446;-2.606;2023-04-28T05:30:21;100837.67;;;12.65;86.26
69351;BME280;57106;51.446;-2.606;2023-04-28T05:32:45;100835.68;;;12.67;86.28
69351;BME280;57106;51.446;-2.606;2023-04-28T05:35:12;100843.49;;;12.59;85.92
69351;BME280;57106;51.446;-2.606;2023-04-28T05:37:35;100847.76;;;12.60;86.65
69351;BME280;57106;51.446;-2.606;2023-04-28T05:40:02;100852.74;;;12.51;86.79
69351;BME280;57106;51.446;-2.606;2023-04-28T05:42:26;100860.71;;;12.37;87.43
69351;BME280;57106;51.446;-2.606;2023-04-28T05:44:52;100862.31;;;12.54;87.42
69351;BME280;57106;51.446;-2.606;2023-04-28T05:47:17;100868.44;;;12.47;87.22
69351;BME280;57106;51.446;-2.606;2023-04-28T05:49:43;100861.79;;;12.75;86.30
69351;BME280;57106;51.446;-2.606;2023-04-28T05:52:08;100858.89;;;12.69;85.84
69351;BME280;57106;51.446;-2.606;2023-04-28T05:54:34;100858.89;;;12.59;86.71
69351;BME280;57106;51.446;-2.606;2023-04-28T05:56:59;100875.24;;;12.44;87.39
69351;BME280;57106;51.446;-2.606;2023-04-28T05:59:27;100877.38;;;12.46;87.00
69351;BME280;57106;51.446;-2.606;2023-04-28T06:01:50;100879.11;;;12.41;87.42
69351;BME280;57106;51.446;-2.606;2023-04-28T06:04:16;100876.24;;;12.25;87.94
69351;BME280;57106;51.446;-2.606;2023-04-28T06:06:41;100876.47;;;12.27;88.16
69351;BME280;57106;51.446;-2.606;2023-04-28T06:09:07;100882.95;;;12.21;88.12
69351;BME280;57106;51.446;-2.606;2023-04-28T06:11:32;100882.39;;;12.32;87.97
69351;BME280;57106;51.446;-2.606;2023-04-28T06:13:58;100880.36;;;12.34;88.01
69351;BME280;57106;51.446;-2.606;2023-04-28T06:16:23;100883.01;;;12.27;88.76
69351;BME280;57106;51.446;-2.606;2023-04-28T06:18:49;100887.50;;;12.26;88.66
69351;BME280;57106;51.446;-2.606;2023-04-28T06:21:15;100887.90;;;12.33;88.33
69351;BME280;57106;51.446;-2.606;2023-04-28T06:23:40;100885.81;;;12.07;89.01
69351;BME280;57106;51.446;-2.606;2023-04-28T06:26:05;100889.18;;;12.24;88.75
69351;BME280;57106;51.446;-2.606;2023-04-28T06:28:31;100884.91;;;12.40;87.91
69351;BME280;57106;51.446;-2.606;2023-04-28T06:30:57;100893.54;;;12.34;87.88
69351;BME280;57106;51.446;-2.606;2023-04-28T06:33:22;100890.78;;;12.37;88.23
69351;BME280;57106;51.446;-2.606;2023-04-28T06:35:47;100895.35;;;12.40;87.65
69351;BME280;57106;51.446;-2.606;2023-04-28T06:38:13;100897.17;;;12.33;88.11
69351;BME280;57106;51.446;-2.606;2023-04-28T06:40:39;100900.76;;;12.68;87.12
69351;BME280;57106;51.446;-2.606;2023-04-28T06:43:04;100901.68;;;12.73;86.79
69351;BME280;57106;51.446;-2.606;2023-04-28T06:45:30;100903.34;;;12.38;87.44
69351;BME280;57106;51.446;-2.606;2023-04-28T06:47:55;100912.81;;;12.48;87.47
69351;BME280;57106;51.446;-2.606;2023-04-28T06:50:21;100915.61;;;12.35;87.38
69351;BME280;57106;51.446;-2.606;2023-04-28T06:52:46;100918.09;;;12.50;87.36
69351;BME280;57106;51.446;-2.606;2023-04-28T06:55:14;100919.83;;;12.47;87.12
69351;BME280;57106;51.446;-2.606;2023-04-28T06:57:37;100930.29;;;12.53;86.91
69351;BME280;57106;51.446;-2.606;2023-04-28T07:00:04;100939.06;;;12.51;86.50
69351;BME280;57106;51.446;-2.606;2023-04-28T07:02:33;100943.46;;;12.52;86.49
69351;BME280;57106;51.446;-2.606;2023-04-28T07:04:54;100942.60;;;12.70;85.91
69351;BME280;57106;51.446;-2.606;2023-04-28T07:07:19;100949.14;;;12.78;84.95
69351;BME280;57106;51.446;-2.606;2023-04-28T07:09:45;100952.21;;;12.63;85.49
69351;BME280;57106;51.446;-2.606;2023-04-28T07:12:10;100951.82;;;12.74;85.66
69351;BME280;57106;51.446;-2.606;2023-04-28T07:14:36;100956.29;;;12.78;85.39
69351;BME280;57106;51.446;-2.606;2023-04-28T07:17:02;100955.87;;;12.66;85.87
69351;BME280;57106;51.446;-2.606;2023-04-28T07:19:27;100961.66;;;12.84;85.78
69351;BME280;57106;51.446;-2.606;2023-04-28T07:21:52;100962.10;;;13.04;84.17
69351;BME280;57106;51.446;-2.606;2023-04-28T07:24:18;100972.54;;;13.00;84.67
69351;BME280;57106;51.446;-2.606;2023-04-28T07:26:44;100972.61;;;13.12;84.09
69351;BME280;57106;51.446;-2.606;2023-04-28T07:29:10;100973.63;;;13.09;83.25
69351;BME280;57106;51.446;-2.606;2023-04-28T07:31:34;100977.71;;;13.20;83.30
69351;BME280;57106;51.446;-2.606;2023-04-28T07:34:00;100978.27;;;13.13;83.60
69351;BME280;57106;51.446;-2.606;2023-04-28T07:36:25;100983.67;;;13.04;83.96
69351;BME280;57106;51.446;-2.606;2023-04-28T07:38:51;100987.96;;;13.07;84.08
69351;BME280;57106;51.446;-2.606;2023-04-28T07:41:16;100987.98;;;13.11;83.60
69351;BME280;57106;51.446;-2.606;2023-04-28T07:46:08;100995.74;;;13.48;82.55
69351;BME280;57106;51.446;-2.606;2023-04-28T07:48:33;101005.89;;;13.64;82.25
69351;BME280;57106;51.446;-2.606;2023-04-28T07:50:59;101003.69;;;13.66;81.93
69351;BME280;57106;51.446;-2.606;2023-04-28T07:53:25;101006.34;;;13.76;81.18
69351;BME280;57106;51.446;-2.606;2023-04-28T07:55:49;101013.49;;;13.71;80.94
69351;BME280;57106;51.446;-2.606;2023-04-28T07:58:15;101015.05;;;13.88;80.78
69351;BME280;57106;51.446;-2.606;2023-04-28T08:00:40;101023.07;;;13.85;80.13
69351;BME280;57106;51.446;-2.606;2023-04-28T08:03:05;101027.97;;;13.84;80.84
69351;BME280;57106;51.446;-2.606;2023-04-28T08:05:31;101029.35;;;13.82;81.02
69351;BME280;57106;51.446;-2.606;2023-04-28T08:07:57;101032.69;;;13.71;80.87
69351;BME280;57106;51.446;-2.606;2023-04-28T08:10:22;101033.88;;;13.59;81.64
69351;BME280;57106;51.446;-2.606;2023-04-28T08:12:47;101036.06;;;13.70;81.34
69351;BME280;57106;51.446;-2.606;2023-04-28T08:15:13;101039.23;;;13.54;82.17
69351;BME280;57106;51.446;-2.606;2023-04-28T08:17:38;101039.43;;;13.71;81.86
69351;BME280;57106;51.446;-2.606;2023-04-28T08:20:05;101039.19;;;13.71;81.21
69351;BME280;57106;51.446;-2.606;2023-04-28T08:22:29;101049.64;;;13.58;81.83
69351;BME280;57106;51.446;-2.606;2023-04-28T08:24:54;101055.32;;;13.67;81.84
69351;BME280;57106;51.446;-2.606;2023-04-28T08:27:20;101058.15;;;13.66;81.53
69351;BME280;57106;51.446;-2.606;2023-04-28T08:29:45;101061.69;;;13.88;80.94
69351;BME280;57106;51.446;-2.606;2023-04-28T08:32:11;101059.27;;;13.73;81.75
69351;BME280;57106;51.446;-2.606;2023-04-28T08:34:37;101063.33;;;14.00;81.22
69351;BME280;57106;51.446;-2.606;2023-04-28T08:37:02;101068.10;;;14.06;80.30
69351;BME280;57106;51.446;-2.606;2023-04-28T08:39:27;101068.57;;;13.84;80.49
69351;BME280;57106;51.446;-2.606;2023-04-28T08:41:53;101071.76;;;13.73;81.39
69351;BME280;57106;51.446;-2.606;2023-04-28T08:44:19;101073.58;;;13.68;81.75
69351;BME280;57106;51.446;-2.606;2023-04-28T08:46:45;101072.82;;;13.74;81.68
69351;BME280;57106;51.446;-2.606;2023-04-28T08:49:14;101076.10;;;13.84;80.76
69351;BME280;57106;51.446;-2.606;2023-04-28T08:51:43;101072.76;;;13.70;81.46
69351;BME280;57106;51.446;-2.606;2023-04-28T08:54:02;101075.87;;;13.96;81.42
69351;BME280;57106;51.446;-2.606;2023-04-28T08:56:31;101080.62;;;14.13;80.20
69351;BME280;57106;51.446;-2.606;2023-04-28T08:58:53;101083.84;;;14.17;80.02
69351;BME280;57106;51.446;-2.606;2023-04-28T09:01:17;101090.24;;;14.28;80.03
69351;BME280;57106;51.446;-2.606;2023-04-28T09:03:42;101093.00;;;14.11;79.81
69351;BME280;57106;51.446;-2.606;2023-04-28T09:06:07;101102.59;;;13.98;80.59
69351;BME280;57106;51.446;-2.606;2023-04-28T09:08:33;101102.43;;;14.17;80.18
69351;BME280;57106;51.446;-2.606;2023-04-28T09:11:06;101105.49;;;14.23;80.02
69351;BME280;57106;51.446;-2.606;2023-04-28T09:13:25;101106.31;;;14.37;79.57
69351;BME280;57106;51.446;-2.606;2023-04-28T09:15:49;101109.65;;;14.51;79.74
69351;BME280;57106;51.446;-2.606;2023-04-28T09:18:15;101111.79;;;14.77;77.91
69351;BME280;57106;51.446;-2.606;2023-04-28T09:20:40;101119.56;;;14.80;77.76
69351;BME280;57106;51.446;-2.606;2023-04-28T09:23:14;101120.92;;;14.86;77.50
69351;BME280;57106;51.446;-2.606;2023-04-28T09:25:31;101124.07;;;14.57;77.57
69351;BME280;57106;51.446;-2.606;2023-04-28T09:27:57;101133.58;;;14.78;77.76
69351;BME280;57106;51.446;-2.606;2023-04-28T09:35:13;101142.39;;;14.81;77.03
69351;BME280;57106;51.446;-2.606;2023-04-28T09:37:39;101148.03;;;14.75;77.24
69351;BME280;57106;51.446;-2.606;2023-04-28T09:40:07;101147.05;;;14.59;77.13
69351;BME280;57106;51.446;-2.606;2023-04-28T09:42:31;101153.95;;;14.82;77.42
69351;BME280;57106;51.446;-2.606;2023-04-28T09:44:56;101157.24;;;14.79;77.18
69351;BME280;57106;51.446;-2.606;2023-04-28T09:47:20;101162.69;;;15.19;75.88
69351;BME280;57106;51.446;-2.606;2023-04-28T09:49:54;101162.17;;;15.18;75.53
69351;BME280;57106;51.446;-2.606;2023-04-28T09:52:12;101160.96;;;15.30;75.05
69351;BME280;57106;51.446;-2.606;2023-04-28T09:54:37;101159.42;;;15.24;75.88
69351;BME280;57106;51.446;-2.606;2023-04-28T09:57:02;101160.74;;;15.37;75.33
69351;BME280;57106;51.446;-2.606;2023-04-28T09:59:28;101164.62;;;15.21;75.64
69351;BME280;57106;51.446;-2.606;2023-04-28T10:01:53;101163.85;;;15.58;73.99
69351;BME280;57106;51.446;-2.606;2023-04-28T10:04:18;101169.19;;;15.69;74.71
69351;BME280;57106;51.446;-2.606;2023-04-28T10:06:46;101157.86;;;15.55;74.19
69351;BME280;57106;51.446;-2.606;2023-04-28T10:09:09;101163.95;;;15.34;74.54
69351;BME280;57106;51.446;-2.606;2023-04-28T10:11:35;101174.69;;;15.37;74.83
69351;BME280;57106;51.446;-2.606;2023-04-28T10:14:00;101175.69;;;15.36;75.09
69351;BME280;57106;51.446;-2.606;2023-04-28T10:16:31;101180.22;;;15.27;75.03
69351;BME280;57106;51.446;-2.606;2023-04-28T10:18:51;101177.38;;;15.38;76.15
69351;BME280;57106;51.446;-2.606;2023-04-28T10:21:18;101186.53;;;15.41;75.28
69351;BME280;57106;51.446;-2.606;2023-04-28T10:23:57;101185.61;;;15.32;75.79
69351;BME280;57106;51.446;-2.606;2023-04-28T10:26:10;101188.29;;;15.40;75.52
69351;BME280;57106;51.446;-2.606;2023-04-28T10:28:34;101189.39;;;15.66;74.84
69351;BME280;57106;51.446;-2.606;2023-04-28T10:31:09;101185.77;;;15.93;73.99
69351;BME280;57106;51.446;-2.606;2023-04-28T10:33:25;101190.38;;;15.85;72.15
69351;BME280;57106;51.446;-2.606;2023-04-28T10:35:50;101194.47;;;15.71;73.46
69351;BME280;57106;51.446;-2.606;2023-04-28T10:38:16;101195.89;;;15.91;71.81
69351;BME280;57106;51.446;-2.606;2023-04-28T10:40:41;101193.50;;;15.75;72.32
69351;BME280;57106;51.446;-2.606;2023-04-28T10:43:07;101198.98;;;16.02;73.18
69351;BME280;57106;51.446;-2.606;2023-04-28T10:48:00;101202.21;;;16.45;71.43
69351;BME280;57106;51.446;-2.606;2023-04-28T10:50:22;101209.91;;;16.48;70.94
69351;BME280;57106;51.446;-2.606;2023-04-28T10:52:48;101211.51;;;16.62;70.66
69351;BME280;57106;51.446;-2.606;2023-04-28T10:55:27;101211.80;;;16.58;69.87
69351;BME280;57106;51.446;-2.606;2023-04-28T10:57:39;101211.30;;;16.63;69.50
69351;BME280;57106;51.446;-2.606;2023-04-28T11:02:39;101216.00;;;16.53;69.90
69351;BME280;57106;51.446;-2.606;2023-04-28T11:07:20;101211.68;;;16.48;69.44
69351;BME280;57106;51.446;-2.606;2023-04-28T11:09:46;101209.92;;;16.65;69.43
69351;BME280;57106;51.446;-2.606;2023-04-28T11:12:11;101205.62;;;16.59;69.17
69351;BME280;57106;51.446;-2.606;2023-04-28T11:14:40;101208.50;;;16.63;69.06
69351;BME280;57106;51.446;-2.606;2023-04-28T11:17:03;101212.52;;;16.69;69.11
69351;BME280;57106;51.446;-2.606;2023-04-28T11:19:29;101209.13;;;16.73;69.22
69351;BME280;57106;51.446;-2.606;2023-04-28T11:21:59;101209.40;;;16.78;68.77
69351;BME280;57106;51.446;-2.606;2023-04-28T11:24:18;101206.39;;;16.87;68.66
69351;BME280;57106;51.446;-2.606;2023-04-28T11:26:44;101211.14;;;16.71;69.01
69351;BME280;57106;51.446;-2.606;2023-04-28T11:29:10;101217.82;;;16.78;67.95
69351;BME280;57106;51.446;-2.606;2023-04-28T11:31:34;101217.35;;;16.99;68.20
69351;BME280;57106;51.446;-2.606;2023-04-28T11:34:03;101215.92;;;17.07;68.12
69351;BME280;57106;51.446;-2.606;2023-04-28T11:36:28;101216.73;;;17.05;66.94
69351;BME280;57106;51.446;-2.606;2023-04-28T11:38:51;101216.60;;;16.83;67.65
69351;BME280;57106;51.446;-2.606;2023-04-28T11:41:16;101216.11;;;16.96;66.77
69351;BME280;57106;51.446;-2.606;2023-04-28T11:43:42;101215.51;;;16.97;66.88
69351;BME280;57106;51.446;-2.606;2023-04-28T11:46:07;101218.58;;;16.89;66.76
69351;BME280;57106;51.446;-2.606;2023-04-28T11:48:32;101221.25;;;16.96;67.36
69351;BME280;57106;51.446;-2.606;2023-04-28T11:50:58;101222.45;;;17.13;67.35
69351;BME280;57106;51.446;-2.606;2023-04-28T11:55:49;101230.07;;;17.16;67.15
69351;BME280;57106;51.446;-2.606;2023-04-28T11:58:18;101229.71;;;17.28;66.36
69351;BME280;57106;51.446;-2.606;2023-04-28T12:00:40;101229.50;;;17.01;66.63
69351;BME280;57106;51.446;-2.606;2023-04-28T12:03:06;101229.67;;;16.82;67.72
69351;BME280;57106;51.446;-2.606;2023-04-28T12:05:30;101230.30;;;16.90;68.53
69351;BME280;57106;51.446;-2.606;2023-04-28T12:07:56;101236.63;;;17.30;67.70
69351;BME280;57106;51.446;-2.606;2023-04-28T12:10:23;101241.18;;;17.03;67.20
69351;BME280;57106;51.446;-2.606;2023-04-28T12:12:47;101250.97;;;16.91;67.75
69351;BME280;57106;51.446;-2.606;2023-04-28T12:15:12;101251.87;;;16.88;67.09
69351;BME280;57106;51.446;-2.606;2023-04-28T12:17:41;101256.61;;;16.75;67.23
69351;BME280;57106;51.446;-2.606;2023-04-28T12:20:05;101257.00;;;16.82;67.50
69351;BME280;57106;51.446;-2.606;2023-04-28T12:22:42;101263.69;;;16.87;67.43
69351;BME280;57106;51.446;-2.606;2023-04-28T12:25:04;101268.40;;;16.91;67.31
69351;BME280;57106;51.446;-2.606;2023-04-28T12:27:20;101268.12;;;17.15;67.15
69351;BME280;57106;51.446;-2.606;2023-04-28T12:29:46;101266.15;;;17.33;67.15
69351;BME280;57106;51.446;-2.606;2023-04-28T12:32:12;101262.01;;;17.20;66.29
69351;BME280;57106;51.446;-2.606;2023-04-28T12:34:40;101269.62;;;17.01;67.03
69351;BME280;57106;51.446;-2.606;2023-04-28T12:37:03;101268.33;;;16.89;67.69
69351;BME280;57106;51.446;-2.606;2023-04-28T12:39:28;101275.83;;;16.99;68.06
69351;BME280;57106;51.446;-2.606;2023-04-28T12:41:58;101281.48;;;16.92;67.68
69351;BME280;57106;51.446;-2.606;2023-04-28T12:44:19;101282.23;;;16.98;68.24
69351;BME280;57106;51.446;-2.606;2023-04-28T12:46:45;101294.86;;;16.99;68.50
69351;BME280;57106;51.446;-2.606;2023-04-28T12:49:10;101298.08;;;16.99;67.86
69351;BME280;57106;51.446;-2.606;2023-04-28T12:51:35;101298.99;;;16.86;67.63
69351;BME280;57106;51.446;-2.606;2023-04-28T12:54:01;101306.63;;;16.72;68.64
69351;BME280;57106;51.446;-2.606;2023-04-28T12:56:30;101307.09;;;16.88;68.05
69351;BME280;57106;51.446;-2.606;2023-04-28T12:58:52;101308.94;;;16.83;67.92